createdAt,value
2023-01-19T00:06:33.196Z,417
2023-01-19T00:26:33.183Z,412
2023-01-19T00:46:33.231Z,412
2023-01-19T01:06:33.239Z,411
2023-01-19T01:26:33.300Z,416
2023-01-19T01:46:33.319Z,407
2023-01-19T02:06:33.359Z,416
2023-01-19T02:26:33.381Z,412
2023-01-19T02:46:33.456Z,413
2023-01-19T03:06:33.470Z,408
2023-01-19T03:26:33.510Z,410
2023-01-19T03:46:33.554Z,411
2023-01-19T04:06:33.598Z,407
2023-01-19T04:26:33.605Z,402
2023-01-19T04:46:33.642Z,406
2023-01-19T05:06:33.854Z,407
2023-01-19T05:26:33.723Z,406
2023-01-19T05:46:33.765Z,408
2023-01-19T06:06:33.774Z,408
2023-01-19T06:26:33.851Z,404
2023-01-19T06:46:33.875Z,408
2023-01-19T07:06:33.892Z,405
2023-01-19T07:26:33.925Z,409
2023-01-19T07:46:33.958Z,408
2023-01-19T08:06:34.035Z,409
2023-01-19T08:26:34.071Z,411
2023-01-19T08:46:34.138Z,411
2023-01-19T09:06:34.215Z,407
2023-01-19T09:26:34.149Z,409
2023-01-19T09:46:34.267Z,408
2023-01-19T10:06:34.255Z,408
2023-01-19T10:26:34.285Z,407
2023-01-19T10:46:34.332Z,398
2023-01-19T11:06:34.339Z,401
2023-01-19T11:26:34.403Z,399
2023-01-19T11:46:34.433Z,398
2023-01-19T12:06:34.461Z,400
2023-01-19T12:26:34.525Z,399
2023-01-19T12:46:34.579Z,401
2023-01-19T13:06:34.584Z,406
2023-01-19T13:26:34.579Z,397
2023-01-19T13:46:34.717Z,398
2023-01-19T14:06:34.657Z,398
2023-01-19T14:26:34.698Z,396
2023-01-19T14:46:34.748Z,404
2023-01-19T15:06:34.759Z,393
2023-01-19T15:26:34.807Z,393
2023-01-19T15:46:34.855Z,395
2023-01-19T16:06:34.858Z,397
2023-01-19T16:26:34.907Z,397
2023-01-19T16:46:34.969Z,392
2023-01-19T17:06:34.982Z,388
2023-01-19T17:26:35.023Z,392
2023-01-19T17:46:35.136Z,392
2023-01-19T18:06:35.116Z,393
2023-01-19T18:26:35.142Z,392
2023-01-19T18:46:35.185Z,389
2023-01-19T19:06:35.198Z,393
2023-01-19T19:26:35.223Z,384
2023-01-19T19:46:35.311Z,384
2023-01-19T20:06:35.283Z,385
2023-01-19T20:26:35.343Z,382
2023-01-19T20:46:35.386Z,383
2023-01-19T21:06:35.408Z,382
2023-01-19T21:26:35.448Z,379
2023-01-19T21:46:35.608Z,388
2023-01-19T22:06:35.488Z,375
2023-01-19T22:26:35.552Z,384
2023-01-19T22:46:35.606Z,381
2023-01-19T23:06:35.626Z,380
2023-01-19T23:26:35.650Z,380
2023-01-19T23:46:35.773Z,376
